createdAt,value
2019-04-05T00:00:55.946Z,7.53
2019-04-05T00:03:25.670Z,7.58
2019-04-05T00:05:55.491Z,7.42
2019-04-05T00:08:25.336Z,7.34
2019-04-05T00:10:55.252Z,7.32
2019-04-05T00:13:25.150Z,7.38
2019-04-05T00:15:54.931Z,7.42
2019-04-05T00:18:24.819Z,7.49
2019-04-05T00:20:54.522Z,7.47
2019-04-05T00:23:24.313Z,7.50
2019-04-05T00:25:54.294Z,7.53
2019-04-05T00:28:24.008Z,7.57
2019-04-05T00:30:53.888Z,7.59
2019-04-05T00:33:23.704Z,7.56
2019-04-05T00:35:53.722Z,7.55
2019-04-05T00:38:23.520Z,7.50
2019-04-05T00:40:53.411Z,7.51
2019-04-05T00:43:23.133Z,7.67
2019-04-05T00:45:53.262Z,7.59
2019-04-05T00:48:23.139Z,7.36
2019-04-05T00:50:53.127Z,7.29
2019-04-05T00:53:22.939Z,7.23
2019-04-05T00:55:52.770Z,7.29
2019-04-05T00:58:22.646Z,7.34
2019-04-05T01:00:52.428Z,7.38
2019-04-05T01:03:22.363Z,7.45
2019-04-05T01:05:52.460Z,7.46
2019-04-05T01:08:22.304Z,7.46
2019-04-05T01:10:52.238Z,7.51
2019-04-05T01:13:22.415Z,7.52
2019-04-05T01:15:52.262Z,7.43
2019-04-05T01:18:22.248Z,7.30
2019-04-05T01:20:54.451Z,7.32
2019-04-05T01:23:25.384Z,7.38
2019-04-05T01:25:58.174Z,7.38
2019-04-05T01:28:28.023Z,7.40
2019-04-05T01:30:58.138Z,7.42
2019-04-05T01:33:28.281Z,7.45
2019-04-05T01:35:58.128Z,7.47
2019-04-05T01:38:27.927Z,7.48
2019-04-05T01:40:59.666Z,7.32
2019-04-05T01:43:29.714Z,7.22
2019-04-05T01:46:00.728Z,7.22
2019-04-05T01:48:30.722Z,7.30
2019-04-05T01:51:00.603Z,7.33
2019-04-05T01:53:30.752Z,7.38
2019-04-05T01:56:00.517Z,7.42
2019-04-05T01:58:30.336Z,7.44
2019-04-05T02:01:00.234Z,7.44
2019-04-05T02:03:30.253Z,7.44
2019-04-05T02:06:00.272Z,7.41
2019-04-05T02:08:30.606Z,7.40
2019-04-05T02:11:00.500Z,7.32
2019-04-05T02:13:30.450Z,7.17
2019-04-05T02:16:06.217Z,7.11
2019-04-05T02:18:31.865Z,7.08
2019-04-05T02:21:01.768Z,7.09
2019-04-05T02:23:31.774Z,7.08
2019-04-05T02:26:01.793Z,7.07
2019-04-05T02:28:31.557Z,7.07
2019-04-05T02:31:02.404Z,7.14
2019-04-05T02:33:32.215Z,7.22
2019-04-05T02:36:02.144Z,7.26
2019-04-05T02:38:31.963Z,7.22
2019-04-05T02:41:03.921Z,7.17
2019-04-05T02:43:36.944Z,7.19
2019-04-05T02:46:22.815Z,7.21
2019-04-05T02:48:44.323Z,7.22
2019-04-05T02:51:18.540Z,7.24
2019-04-05T02:53:49.567Z,7.23
2019-04-05T02:56:20.760Z,7.33
2019-04-05T02:58:51.860Z,7.38
2019-04-05T03:01:22.821Z,7.19
2019-04-05T03:03:52.912Z,7.10
2019-04-05T03:06:22.914Z,7.09
2019-04-05T03:08:54.533Z,7.12
2019-04-05T03:11:28.760Z,7.17
2019-04-05T03:14:03.081Z,7.21
2019-04-05T03:16:41.417Z,7.26
2019-04-05T03:19:13.589Z,7.31
2019-04-05T03:21:47.873Z,7.21
2019-04-05T03:24:22.515Z,7.19
2019-04-05T03:26:56.785Z,7.20
2019-04-05T03:29:27.466Z,7.22
2019-04-05T03:31:57.956Z,7.28
2019-04-05T03:34:28.112Z,7.24
2019-04-05T03:36:57.984Z,7.35
2019-04-05T03:39:28.774Z,7.34
2019-04-05T03:41:59.015Z,7.27
2019-04-05T03:44:28.962Z,7.24
2019-04-05T03:46:59.040Z,7.31
2019-04-05T03:49:29.612Z,7.25
2019-04-05T03:51:59.620Z,7.29
2019-04-05T03:54:30.262Z,7.27
2019-04-05T03:57:01.987Z,7.20
2019-04-05T03:59:31.878Z,7.17
2019-04-05T04:02:02.383Z,7.20
2019-04-05T04:04:32.566Z,7.15
2019-04-05T04:07:02.399Z,7.18
2019-04-05T04:09:32.629Z,7.27
2019-04-05T04:12:03.371Z,7.51
2019-04-05T04:14:33.272Z,7.35
2019-04-05T04:17:12.277Z,7.38
2019-04-05T04:19:34.996Z,7.21
2019-04-05T04:22:20.973Z,7.38
2019-04-05T04:24:51.128Z,7.29
2019-04-05T04:27:21.724Z,7.23
2019-04-05T04:29:52.584Z,7.14
2019-04-05T04:32:22.581Z,7.13
2019-04-05T04:34:52.601Z,7.26
2019-04-05T04:37:23.023Z,7.43
2019-04-05T04:39:52.975Z,7.49
2019-04-05T04:42:23.855Z,7.45
2019-04-05T04:44:54.714Z,7.28
2019-04-05T04:47:27.352Z,7.31
2019-04-05T04:49:59.180Z,7.46
2019-04-05T04:52:31.497Z,7.51
2019-04-05T04:55:01.645Z,7.43
2019-04-05T04:57:32.147Z,7.31
2019-04-05T05:00:02.170Z,7.32
2019-04-05T05:02:32.167Z,7.21
2019-04-05T05:05:02.824Z,7.13
2019-04-05T05:07:33.479Z,7.10
2019-04-05T05:10:03.968Z,7.19
2019-04-05T05:12:33.969Z,7.38
2019-04-05T05:15:05.671Z,7.27
2019-04-05T05:17:38.596Z,7.38
2019-04-05T05:20:09.371Z,7.34
2019-04-05T05:22:39.678Z,7.28
2019-04-05T05:25:09.937Z,7.24
2019-04-05T05:27:39.840Z,7.23
2019-04-05T05:30:11.484Z,7.20
2019-04-05T05:32:41.594Z,7.23
2019-04-05T05:35:11.709Z,7.19
2019-04-05T05:37:41.688Z,7.36
2019-04-05T05:40:12.065Z,7.36
2019-04-05T05:42:41.937Z,7.28
2019-04-05T05:45:12.243Z,7.22
2019-04-05T05:47:51.794Z,7.28
2019-04-05T05:50:14.161Z,7.16
2019-04-05T05:52:44.487Z,7.10
2019-04-05T05:55:14.309Z,7.11
2019-04-05T05:57:44.142Z,7.14
2019-04-05T06:00:17.114Z,7.35
2019-04-05T06:02:48.371Z,7.30
2019-04-05T06:05:18.526Z,7.30
2019-04-05T06:07:48.251Z,7.30
2019-04-05T06:10:18.140Z,7.24
2019-04-05T06:12:47.829Z,7.40
2019-04-05T06:15:17.697Z,7.35
2019-04-05T06:17:47.433Z,7.38
2019-04-05T06:20:17.628Z,7.31
2019-04-05T06:22:47.672Z,7.23
2019-04-05T06:25:17.763Z,7.19
2019-04-05T06:27:47.503Z,7.24
2019-04-05T06:30:17.296Z,7.25
2019-04-05T06:32:47.094Z,7.34
2019-04-05T06:35:17.518Z,7.43
2019-04-05T06:37:47.282Z,7.55
2019-04-05T06:40:17.125Z,7.64
2019-04-05T06:42:46.819Z,7.70
2019-04-05T06:45:16.620Z,7.77
2019-04-05T06:47:46.393Z,7.74
2019-04-05T06:50:16.205Z,7.88
2019-04-05T06:52:46.005Z,8.03
2019-04-05T06:55:15.907Z,8.07
2019-04-05T06:57:45.622Z,8.15
2019-04-05T07:00:16.336Z,8.21
2019-04-05T07:02:46.088Z,8.33
2019-04-05T07:05:15.871Z,8.34
2019-04-05T07:07:45.549Z,8.47
2019-04-05T07:10:15.481Z,8.63
2019-04-05T07:12:45.228Z,8.91
2019-04-05T07:15:15.177Z,9.15
2019-04-05T07:17:44.931Z,9.28
2019-04-05T07:20:14.726Z,9.57
2019-04-05T07:22:44.364Z,9.63
2019-04-05T07:25:14.221Z,9.35
2019-04-05T07:27:44.056Z,9.32
2019-04-05T07:30:15.559Z,9.26
2019-04-05T07:32:45.252Z,9.11
2019-04-05T07:35:15.104Z,9.11
2019-04-05T07:37:45.084Z,9.12
2019-04-05T07:40:15.579Z,8.86
2019-04-05T07:42:45.388Z,8.73
2019-04-05T07:45:15.719Z,9.04
2019-04-05T07:47:45.414Z,9.21
2019-04-05T07:50:15.828Z,8.99
2019-04-05T07:52:45.529Z,8.88
2019-04-05T07:55:15.738Z,9.03
2019-04-05T07:57:45.741Z,9.35
2019-04-05T08:00:28.643Z,9.31
2019-04-05T08:02:58.284Z,9.48
2019-04-05T08:05:28.182Z,9.56
2019-04-05T08:07:58.563Z,9.26
2019-04-05T08:10:28.969Z,8.88
2019-04-05T08:12:59.897Z,9.20
2019-04-05T08:15:30.698Z,9.43
2019-04-05T08:18:00.562Z,9.57
2019-04-05T08:20:30.302Z,9.81
2019-04-05T08:23:00.017Z,9.71
2019-04-05T08:25:29.793Z,9.84
2019-04-05T08:27:59.612Z,9.83
2019-04-05T08:30:29.354Z,9.55
2019-04-05T08:32:59.059Z,9.63
2019-04-05T08:35:28.727Z,9.67
2019-04-05T08:37:58.548Z,9.75
2019-04-05T08:40:28.283Z,9.74
2019-04-05T08:42:58.160Z,9.75
2019-04-05T08:45:28.133Z,9.57
2019-04-05T08:47:57.836Z,9.53
2019-04-05T08:50:27.611Z,9.58
2019-04-05T08:52:57.520Z,9.52
2019-04-05T08:55:27.233Z,9.39
2019-04-05T08:57:56.992Z,9.42
2019-04-05T09:00:26.976Z,9.49
2019-04-05T09:02:56.780Z,9.24
2019-04-05T09:05:26.469Z,9.42
2019-04-05T09:07:56.199Z,9.58
2019-04-05T09:10:25.913Z,9.51
2019-04-05T09:12:55.613Z,9.12
2019-04-05T09:15:25.636Z,9.14
2019-04-05T09:17:55.469Z,9.13
2019-04-05T09:20:25.245Z,9.07
2019-04-05T09:22:55.097Z,9.13
2019-04-05T09:25:24.836Z,9.24
2019-04-05T09:27:54.809Z,9.38
2019-04-05T09:30:24.653Z,9.52
2019-04-05T09:32:54.348Z,9.74
2019-04-05T09:35:24.041Z,9.84
2019-04-05T09:37:54.085Z,9.68
2019-04-05T09:40:23.865Z,9.67
2019-04-05T09:42:53.566Z,9.68
2019-04-05T09:45:23.292Z,9.92
2019-04-05T09:47:53.171Z,9.84
2019-04-05T09:50:22.890Z,9.76
2019-04-05T09:52:52.702Z,9.94
2019-04-05T09:55:22.376Z,10.05
2019-04-05T09:57:52.068Z,10.18
2019-04-05T10:00:23.536Z,10.15
2019-04-05T10:02:53.423Z,9.88
2019-04-05T10:05:23.243Z,9.87
2019-04-05T10:07:55.111Z,9.95
2019-04-05T10:10:24.865Z,9.77
2019-04-05T10:12:54.824Z,9.80
2019-04-05T10:15:24.742Z,9.90
2019-04-05T10:17:54.543Z,10.17
2019-04-05T10:20:24.494Z,10.45
2019-04-05T10:22:54.412Z,10.70
2019-04-05T10:25:24.401Z,10.85
2019-04-05T10:27:54.210Z,10.69
2019-04-05T10:30:24.558Z,10.59
2019-04-05T10:32:54.504Z,10.54
2019-04-05T10:35:24.377Z,10.30
2019-04-05T10:37:54.303Z,10.26
2019-04-05T10:40:24.292Z,10.34
2019-04-05T10:42:54.218Z,10.38
2019-04-05T10:45:25.200Z,10.43
2019-04-05T10:47:55.097Z,10.75
2019-04-05T10:50:25.069Z,10.59
2019-04-05T10:52:55.043Z,10.82
2019-04-05T10:55:24.853Z,11.06
2019-04-05T10:57:54.659Z,11.03
2019-04-05T11:00:25.464Z,10.89
2019-04-05T11:02:55.250Z,11.07
2019-04-05T11:05:26.071Z,11.21
2019-04-05T11:07:55.750Z,10.72
2019-04-05T11:10:25.408Z,10.77
2019-04-05T11:12:55.285Z,10.65
2019-04-05T11:15:24.984Z,10.73
2019-04-05T11:17:54.950Z,10.96
2019-04-05T11:20:24.800Z,11.24
2019-04-05T11:22:54.664Z,11.10
2019-04-05T11:25:24.814Z,11.14
2019-04-05T11:27:54.551Z,11.27
2019-04-05T11:30:42.575Z,11.48
2019-04-05T11:33:12.555Z,11.66
2019-04-05T11:35:42.962Z,11.65
2019-04-05T11:38:14.131Z,11.51
2019-04-05T11:40:45.306Z,11.23
2019-04-05T11:43:17.069Z,11.03
2019-04-05T11:45:48.590Z,10.98
2019-04-05T11:48:18.618Z,11.11
2019-04-05T11:50:48.303Z,11.24
2019-04-05T11:53:18.061Z,10.89
2019-04-05T11:55:48.138Z,10.72
2019-04-05T11:58:17.793Z,10.78
2019-04-05T12:00:51.910Z,11.00
2019-04-05T12:03:24.829Z,11.16
2019-04-05T12:05:54.563Z,11.32
2019-04-05T12:08:24.381Z,11.36
2019-04-05T12:10:54.426Z,11.37
2019-04-05T12:13:24.176Z,11.26
2019-04-05T12:15:53.999Z,11.16
2019-04-05T12:18:23.720Z,10.98
2019-04-05T12:21:00.062Z,10.82
2019-04-05T12:23:24.857Z,10.85
2019-04-05T12:25:54.889Z,11.15
2019-04-05T12:28:24.617Z,11.03
2019-04-05T12:30:54.569Z,10.60
2019-04-05T12:33:26.249Z,10.58
2019-04-05T12:35:56.661Z,10.74
2019-04-05T12:38:33.905Z,10.61
2019-04-05T12:41:05.223Z,10.57
2019-04-05T12:43:36.818Z,10.83
2019-04-05T12:46:07.350Z,10.89
2019-04-05T12:48:37.015Z,10.94
2019-04-05T12:51:06.926Z,11.01
2019-04-05T12:53:36.656Z,11.24
2019-04-05T12:56:06.906Z,11.39
2019-04-05T12:58:36.631Z,11.43
2019-04-05T13:01:08.386Z,11.17
2019-04-05T13:03:38.032Z,11.14
2019-04-05T13:06:07.734Z,11.00
2019-04-05T13:08:37.457Z,11.17
2019-04-05T13:11:07.377Z,11.39
2019-04-05T13:13:37.139Z,11.38
2019-04-05T13:16:09.838Z,11.07
2019-04-05T13:18:38.755Z,11.27
2019-04-05T13:21:15.098Z,11.18
2019-04-05T13:23:40.429Z,11.24
2019-04-05T13:26:12.346Z,11.15
2019-04-05T13:28:41.893Z,11.25
2019-04-05T13:31:11.686Z,11.09
2019-04-05T13:33:41.621Z,11.30
2019-04-05T13:36:11.514Z,11.24
2019-04-05T13:38:53.998Z,11.19
2019-04-05T13:41:12.942Z,11.24
2019-04-05T13:43:42.628Z,11.43
2019-04-05T13:46:21.814Z,11.36
2019-04-05T13:48:43.780Z,11.39
2019-04-05T13:51:13.489Z,11.14
2019-04-05T13:53:43.205Z,11.21
2019-04-05T13:56:12.995Z,11.28
2019-04-05T13:58:46.004Z,11.14
2019-04-05T14:01:14.222Z,10.87
2019-04-05T14:03:44.009Z,10.99
2019-04-05T14:06:13.663Z,11.12
2019-04-05T14:08:43.344Z,11.16
2019-04-05T14:11:13.241Z,11.26
2019-04-05T14:13:43.164Z,11.17
2019-04-05T14:16:13.137Z,11.04
2019-04-05T14:18:49.444Z,11.12
2019-04-05T14:21:14.534Z,11.21
2019-04-05T14:23:44.299Z,11.31
2019-04-05T14:26:14.039Z,11.46
2019-04-05T14:28:43.722Z,11.26
2019-04-05T14:31:13.402Z,11.18
2019-04-05T14:33:43.172Z,10.92
2019-04-05T14:36:13.029Z,10.97
2019-04-05T14:38:42.708Z,10.92
2019-04-05T14:41:12.549Z,10.88
2019-04-05T14:43:44.535Z,10.69
2019-04-05T14:46:14.006Z,10.63
2019-04-05T14:48:43.790Z,10.81
2019-04-05T14:51:13.544Z,10.62
2019-04-05T14:53:43.352Z,10.68
2019-04-05T14:56:13.128Z,10.66
2019-04-05T14:58:42.824Z,10.70
2019-04-05T15:01:12.683Z,10.57
2019-04-05T15:03:42.365Z,10.45
2019-04-05T15:06:12.200Z,10.49
2019-04-05T15:08:42.100Z,10.49
2019-04-05T15:11:11.880Z,10.45
2019-04-05T15:13:41.618Z,10.38
2019-04-05T15:16:11.645Z,10.35
2019-04-05T15:18:43.045Z,10.40
2019-04-05T15:21:12.857Z,10.40
2019-04-05T15:23:45.435Z,10.49
2019-04-05T15:26:14.134Z,10.58
2019-04-05T15:28:43.870Z,10.53
2019-04-05T15:31:13.691Z,10.52
2019-04-05T15:33:43.488Z,10.45
2019-04-05T15:36:13.145Z,10.22
2019-04-05T15:38:42.907Z,10.19
2019-04-05T15:41:12.587Z,10.27
2019-04-05T15:43:42.493Z,10.28
2019-04-05T15:46:12.433Z,10.28
2019-04-05T15:48:42.189Z,10.29
2019-04-05T15:51:12.015Z,10.37
2019-04-05T15:53:41.851Z,10.28
2019-04-05T15:56:11.590Z,10.18
2019-04-05T15:58:41.321Z,10.21
2019-04-05T16:01:11.311Z,10.18
2019-04-05T16:03:41.270Z,10.13
2019-04-05T16:06:11.112Z,10.20
2019-04-05T16:08:40.891Z,10.16
2019-04-05T16:11:10.816Z,10.16
2019-04-05T16:13:40.663Z,10.15
2019-04-05T16:16:10.911Z,10.13
2019-04-05T16:18:40.576Z,10.17
2019-04-05T16:21:10.449Z,10.21
2019-04-05T16:23:40.163Z,10.13
2019-04-05T16:26:09.922Z,10.18
2019-04-05T16:28:41.091Z,10.13
2019-04-05T16:31:11.009Z,10.08
2019-04-05T16:33:40.712Z,10.06
2019-04-05T16:36:10.381Z,9.96
2019-04-05T16:38:40.220Z,9.90
2019-04-05T16:41:10.036Z,9.92
2019-04-05T16:43:39.701Z,9.91
2019-04-05T16:46:09.335Z,9.95
2019-04-05T16:48:39.116Z,9.94
2019-04-05T16:51:08.918Z,9.92
2019-04-05T16:53:40.334Z,10.00
2019-04-05T16:56:10.394Z,9.98
2019-04-05T16:58:40.239Z,10.06
2019-04-05T17:01:10.297Z,9.86
2019-04-05T17:03:40.033Z,9.87
2019-04-05T17:06:09.728Z,9.87
2019-04-05T17:08:39.544Z,9.87
2019-04-05T17:11:09.286Z,9.83
2019-04-05T17:13:38.991Z,9.74
2019-04-05T17:16:08.701Z,9.75
2019-04-05T17:18:38.448Z,9.73
2019-04-05T17:21:08.118Z,9.71
2019-04-05T17:23:37.847Z,9.68
2019-04-05T17:26:07.591Z,9.64
2019-04-05T17:28:37.246Z,9.63
2019-04-05T17:31:07.080Z,9.58
2019-04-05T17:33:36.824Z,9.55
2019-04-05T17:36:06.555Z,9.53
2019-04-05T17:38:36.445Z,9.51
2019-04-05T17:41:06.600Z,9.55
2019-04-05T17:43:36.405Z,9.47
2019-04-05T17:46:06.329Z,9.35
2019-04-05T17:48:36.079Z,9.36
2019-04-05T17:51:05.881Z,9.36
2019-04-05T17:53:35.643Z,9.45
2019-04-05T17:56:05.653Z,9.56
2019-04-05T17:58:37.298Z,9.48
2019-04-05T18:01:07.362Z,9.47
2019-04-05T18:03:37.065Z,9.45
2019-04-05T18:06:07.047Z,9.49
2019-04-05T18:08:36.714Z,9.50
2019-04-05T18:11:06.613Z,9.40
2019-04-05T18:13:36.810Z,9.32
2019-04-05T18:16:06.609Z,9.35
2019-04-05T18:18:36.367Z,9.33
2019-04-05T18:21:07.539Z,9.34
2019-04-05T18:23:37.200Z,9.34
2019-04-05T18:26:07.012Z,9.37
2019-04-05T18:28:37.887Z,9.39
2019-04-05T18:31:07.529Z,9.34
2019-04-05T18:33:38.235Z,9.41
2019-04-05T18:36:07.892Z,9.42
2019-04-05T18:38:37.706Z,9.38
2019-04-05T18:41:07.620Z,9.40
2019-04-05T18:43:37.275Z,9.33
2019-04-05T18:46:07.104Z,9.31
2019-04-05T18:48:36.804Z,9.37
2019-04-05T18:51:06.540Z,9.20
2019-04-05T18:53:38.013Z,9.20
2019-04-05T18:56:07.876Z,9.13
2019-04-05T18:58:37.586Z,9.09
2019-04-05T19:01:07.433Z,9.10
2019-04-05T19:03:37.168Z,9.07
2019-04-05T19:06:07.320Z,9.12
2019-04-05T19:08:39.868Z,9.10
2019-04-05T19:11:08.582Z,9.10
2019-04-05T19:13:38.393Z,9.24
2019-04-05T19:16:08.165Z,9.36
2019-04-05T19:18:38.105Z,9.31
2019-04-05T19:21:08.001Z,9.28
2019-04-05T19:23:49.879Z,9.22
2019-04-05T19:26:09.178Z,9.24
2019-04-05T19:28:38.915Z,9.23
2019-04-05T19:48:48.670Z,9.36
2019-04-05T19:51:18.463Z,9.38
2019-04-05T19:53:49.466Z,9.28
2019-04-05T19:56:19.172Z,9.31
2019-04-05T19:58:49.147Z,9.26
2019-04-05T20:01:18.877Z,9.26
2019-04-05T20:03:48.655Z,9.25
2019-04-05T20:06:18.314Z,9.21
2019-04-05T20:08:48.009Z,9.26
2019-04-05T20:11:18.087Z,9.17
2019-04-05T20:13:47.834Z,9.22
2019-04-05T20:16:17.597Z,9.23
2019-04-05T20:18:47.239Z,9.29
2019-04-05T20:21:17.057Z,9.31
2019-04-05T20:23:47.805Z,9.24
2019-04-05T20:26:17.774Z,9.26
2019-04-05T20:28:47.463Z,9.30
2019-04-05T20:31:17.239Z,9.36
2019-04-05T20:33:46.960Z,9.20
2019-04-05T20:36:16.644Z,9.19
2019-04-05T20:38:46.369Z,9.21
2019-04-05T20:41:16.164Z,9.13
2019-04-05T20:43:45.951Z,9.14
2019-04-05T20:46:15.972Z,9.12
2019-04-05T20:48:45.625Z,9.13
2019-04-05T20:51:15.323Z,9.16
2019-04-05T20:53:44.993Z,9.15
2019-04-05T20:56:14.847Z,9.24
2019-04-05T20:58:44.525Z,9.14
2019-04-05T21:01:14.202Z,9.22
2019-04-05T21:03:43.991Z,9.18
2019-04-05T21:06:13.868Z,9.16
2019-04-05T21:08:43.531Z,9.16
2019-04-05T21:11:13.285Z,9.16
2019-04-05T21:13:43.097Z,9.19
2019-04-05T21:16:12.832Z,9.11
2019-04-05T21:18:42.501Z,9.17
2019-04-05T21:21:12.323Z,9.13
2019-04-05T21:23:42.216Z,9.21
2019-04-05T21:26:11.949Z,9.25
2019-04-05T21:28:41.781Z,9.17
2019-04-05T21:31:11.513Z,9.30
2019-04-05T21:33:41.252Z,9.35
2019-04-05T21:36:10.961Z,9.22
2019-04-05T21:38:40.681Z,9.18
2019-04-05T21:41:10.393Z,9.10
2019-04-05T21:43:40.087Z,9.27
2019-04-05T21:46:09.783Z,9.29
2019-04-05T21:48:39.473Z,9.27
2019-04-05T21:51:09.208Z,9.31
2019-04-05T21:53:38.982Z,9.24
2019-04-05T21:56:09.048Z,9.27
2019-04-05T21:58:38.756Z,9.23
2019-04-05T22:01:09.948Z,9.28
2019-04-05T22:03:39.699Z,9.20
2019-04-05T22:06:09.563Z,9.17
2019-04-05T22:08:39.390Z,9.19
2019-04-05T22:11:09.318Z,9.37
2019-04-05T22:13:39.319Z,9.26
2019-04-05T22:16:09.213Z,9.24
2019-04-05T22:18:38.928Z,9.29
2019-04-05T22:21:08.815Z,9.35
2019-04-05T22:23:38.835Z,9.28
2019-04-05T22:26:09.437Z,9.23
2019-04-05T22:28:39.264Z,9.25
2019-04-05T22:31:09.199Z,9.29
2019-04-05T22:33:38.890Z,9.30
2019-04-05T22:36:08.711Z,9.19
2019-04-05T22:38:38.530Z,9.22
2019-04-05T22:41:08.341Z,9.15
2019-04-05T22:43:38.019Z,9.20
2019-04-05T22:46:07.897Z,9.23
2019-04-05T22:48:37.653Z,9.24
2019-04-05T22:51:07.376Z,9.14
2019-04-05T22:53:37.080Z,9.22
2019-04-05T22:56:06.982Z,9.29
2019-04-05T22:58:36.817Z,9.30
2019-04-05T23:01:06.582Z,9.21
2019-04-05T23:03:36.355Z,9.33
2019-04-05T23:06:06.416Z,9.24
2019-04-05T23:08:36.507Z,9.30
2019-04-05T23:11:06.307Z,9.21
2019-04-05T23:13:36.445Z,9.25
2019-04-05T23:16:06.561Z,9.29
2019-04-05T23:18:36.474Z,9.32
2019-04-05T23:21:06.365Z,9.36
2019-04-05T23:23:36.184Z,9.24
2019-04-05T23:26:05.904Z,9.26
2019-04-05T23:28:35.879Z,9.21
2019-04-05T23:31:05.838Z,9.29
2019-04-05T23:33:35.572Z,9.22
2019-04-05T23:36:05.625Z,9.13
2019-04-05T23:38:35.363Z,9.30
2019-04-05T23:41:05.366Z,9.25
2019-04-05T23:43:35.153Z,9.30
2019-04-05T23:46:04.916Z,9.22
2019-04-05T23:48:34.728Z,9.18
2019-04-05T23:51:04.508Z,9.23
2019-04-05T23:53:34.349Z,9.19
2019-04-05T23:56:04.148Z,9.19
2019-04-05T23:58:33.862Z,9.28
